Skip Navigation Links Skip Navigation Links

Current Weather

Waukegan Regional, Waukegan, Ill.

For information only: do not use for flight planning or navigation.
Latest weather
Observation time Friday, February 28, 2020 5:55 AM CST
Local time Friday, February 28, 2020 6:36 AM CST
Flight conditions Visual Meteorological Conditions
Winds
Wind direction West-Northwest (290°)
Wind speed 3 mph
Visibility 10 mi.
Sky condition
Ceiling unlimited
Cloud layer few clouds 8,500 ft.
Cloud layer few clouds 11,000 ft.
Temperature 15°F
Dewpoint 3°F
Altimeter 30.01 in.Hg
Pressure change last 3 hours0.00 in.Hg
Pressure rising more quickly
Derived measurements
Relative humidity 58%
Wind chill 9°F
Density altitude -2390 ft.
Sea-level pressure 30.06 in.Hg
Climate data
Temperature minimum, last 6 hours 15°F
Temperature maximum, last 6 hours 18°F
Remarks
Automated weather observing station with precipitation discriminator.
METAR KUGN 281155Z 29003KT 10SM FEW085 FEW110 M09/M16 A3001 RMK AO2 SLP181 T10941161 11078 21094 53000

Settings

Location code

InnerDrive.Weather 4.0.6770.0 Release CLR 4.0.30319.42000
Copyright ©2018 Inner Drive Technology. All rights reserved. Portions Copyright ©1986-2018 David Braverman.

Find weather

Site navigation


Skip Navigation Links

Place info

Page info

PayPal - The safer, easier way to pay online!

Return home.

Copyright ©2020 Inner Drive Technology. Purveyors of fine, hand-crafted computer software. Page printed 2020-02-28T12:36:25 UTC.